Time;durP1;ratioP1;P1;durP2;ratioP2;P2;SDS_P1;SDS_P2;PMS_P1;PMS_P2;Temp;Humidity;BMP_temperature;BMP_pressure;BME280_temperature;BME280_humidity;BME280_pressure;Samples;Min_cycle;Max_cycle;Signal;HPM_P1;HPM_P2
2021/05/17 00:04:07;;;;;;;10.50;6.45;;;;;;;11.74;66.10;97973.86;261570;1104;206883;-65
2021/05/17 00:09:11;;;;;;;10.83;6.65;;;;;;;11.71;66.91;97966.12;261714;1099;116965;-65
2021/05/17 00:14:20;;;;;;;10.35;7.48;;;;;;;11.66;66.54;97963.84;261058;1104;115151;-65
2021/05/17 00:19:29;;;;;;;9.33;7.50;;;;;;;11.63;66.95;97973.92;261135;1104;115109;-67
2021/05/17 00:24:45;;;;;;;12.47;7.17;;;;;;;11.50;66.52;97969.60;261239;1104;114704;-66
2021/05/17 00:30:01;;;;;;;11.17;7.37;;;;;;;11.44;66.74;97963.93;261330;1104;115275;-66
2021/05/17 00:35:11;;;;;;;11.88;7.70;;;;;;;11.39;66.50;97955.49;261283;1100;114891;-66
2021/05/17 00:40:24;;;;;;;12.83;8.27;;;;;;;11.38;67.14;97946.66;261424;1104;114920;-65
2021/05/17 00:45:36;;;;;;;12.90;8.30;;;;;;;11.36;66.67;97936.11;261293;1098;115722;-64
2021/05/17 00:50:52;;;;;;;12.63;8.57;;;;;;;11.35;66.78;97934.44;261270;1102;117443;-64
2021/05/17 00:56:06;;;;;;;13.37;8.53;;;;;;;11.33;66.66;97927.53;261112;1104;116270;-62
2021/05/17 01:01:22;;;;;;;12.85;8.68;;;;;;;11.29;66.68;97924.28;261600;1100;116286;-66
2021/05/17 01:06:33;;;;;;;14.33;8.50;;;;;;;11.23;66.56;97923.94;261407;1099;115722;-65
2021/05/17 01:11:57;;;;;;;11.10;7.87;;;;;;;11.21;66.72;97923.20;261353;1104;114926;-66
2021/05/17 01:17:08;;;;;;;11.43;7.70;;;;;;;11.19;66.94;97909.20;260998;1099;115255;-65
2021/05/17 01:22:37;;;;;;;11.05;7.38;;;;;;;11.23;66.98;97911.47;261382;1104;116017;-65
2021/05/17 01:27:52;;;;;;;8.80;7.60;;;;;;;11.25;67.25;97906.03;261129;1099;114937;-67
2021/05/17 01:33:02;;;;;;;11.13;7.00;;;;;;;11.25;67.15;97909.53;261040;1104;114588;-65
2021/05/17 01:38:19;;;;;;;10.78;7.35;;;;;;;11.21;67.10;97923.20;261104;1100;114599;-66
2021/05/17 01:43:33;;;;;;;9.50;7.13;;;;;;;11.16;67.54;97918.27;261275;1104;114173;-65
2021/05/17 01:48:42;;;;;;;9.47;7.10;;;;;;;11.15;67.66;97897.95;261193;1104;114211;-66
2021/05/17 01:53:59;;;;;;;9.68;6.28;;;;;;;11.18;67.25;97899.53;261194;1104;114378;-65
2021/05/17 01:59:32;;;;;;;13.07;7.03;;;;;;;11.20;67.41;97900.22;261496;1104;116113;-65
2021/05/17 02:04:43;;;;;;;10.30;6.87;;;;;;;11.22;67.33;97899.13;261280;1104;115170;-65
2021/05/17 02:09:53;;;;;;;10.90;6.20;;;;;;;11.24;67.97;97906.98;261428;1099;115397;-65
2021/05/17 02:15:08;;;;;;;10.05;7.05;;;;;;;11.21;67.58;97904.56;261462;1104;115086;-66
2021/05/17 02:20:22;;;;;;;13.25;6.80;;;;;;;11.21;68.21;97912.55;261288;1098;115039;-65
2021/05/17 02:25:37;;;;;;;10.43;7.00;;;;;;;11.20;68.14;97906.39;261207;1104;116520;-65
2021/05/17 02:30:47;;;;;;;7.98;6.43;;;;;;;11.25;67.92;97911.36;261393;1098;114145;-65
2021/05/17 02:36:01;;;;;;;12.60;6.77;;;;;;;11.31;68.08;97909.03;261315;1104;115385;-64
2021/05/17 02:41:16;;;;;;;10.25;6.65;;;;;;;11.33;68.04;97899.08;261540;1104;115171;-67
2021/05/17 02:46:30;;;;;;;11.35;7.10;;;;;;;11.34;68.15;97890.13;261273;1104;114640;-66
2021/05/17 02:51:51;;;;;;;12.88;6.55;;;;;;;11.33;68.15;97896.41;261760;1099;114440;-67
2021/05/17 02:57:14;;;;;;;9.23;6.23;;;;;;;11.28;67.92;97882.65;261612;1104;115059;-66
2021/05/17 03:03:08;;;;;;;8.47;6.27;;;;;;;11.29;67.92;97883.48;261571;1100;115233;-64
2021/05/17 03:08:56;;;;;;;7.38;5.88;;;;;;;11.37;68.14;97883.68;261831;1099;114677;-67
2021/05/17 03:14:17;;;;;;;7.60;5.85;;;;;;;11.38;68.26;97896.05;261794;1100;114504;-67
2021/05/17 03:19:53;;;;;;;7.95;5.98;;;;;;;11.39;68.26;97903.05;261785;1099;115580;-68
2021/05/17 03:27:24;;;;;;;7.45;5.70;;;;;;;11.41;68.34;97894.92;262160;1092;103155;-69
2021/05/17 03:32:38;;;;;;;9.68;6.25;;;;;;;11.42;68.45;97905.47;261773;1102;114719;-66
2021/05/17 03:42:22;;;;;;;14.03;5.10;;;;;;;11.52;68.87;97924.20;262330;1092;102988;-67
2021/05/17 03:47:45;;;;;;;10.90;5.55;;;;;;;11.61;67.96;97926.91;261897;1098;114122;-68
2021/05/17 03:53:03;;;;;;;9.73;6.05;;;;;;;11.66;69.01;97936.36;261735;1101;114458;-69
2021/05/17 03:58:27;;;;;;;8.65;5.78;;;;;;;11.72;68.16;97938.48;261761;1099;114930;-70
2021/05/17 04:03:41;;;;;;;6.38;4.68;;;;;;;11.74;68.95;97942.72;261672;1100;114802;-66
2021/05/17 04:14:41;;;;;;;6.03;4.23;;;;;;;11.86;69.10;97932.05;261994;1103;114840;-68
2021/05/17 04:19:56;;;;;;;4.68;3.90;;;;;;;11.98;68.40;97931.81;262203;1099;114850;-65
2021/05/17 04:26:16;;;;;;;8.75;4.40;;;;;;;12.11;68.56;97928.11;262212;1104;115673;-66
2021/05/17 04:51:52;;;;;;;8.08;3.93;;;;;;;12.49;68.24;97922.09;262592;1093;103189;-68
2021/05/17 04:57:09;;;;;;;8.18;3.75;;;;;;;12.58;68.27;97928.47;261988;1104;116736;-68
2021/05/17 05:06:12;;;;;;;9.18;3.83;;;;;;;12.72;68.44;97925.42;263000;1093;103032;-68
2021/05/17 05:11:55;;;;;;;9.38;3.90;;;;;;;12.78;68.36;97925.72;262172;1104;113953;-68
2021/05/17 05:17:49;;;;;;;8.98;4.33;;;;;;;12.85;68.12;97938.53;262136;1104;114835;-67
2021/05/17 05:24:00;;;;;;;7.93;4.30;;;;;;;12.94;67.93;97948.37;261992;1100;116173;-67
2021/05/17 06:09:10;;;;;;;9.43;4.78;;;;;;;13.78;67.72;97911.31;262610;1093;103476;-66
2021/05/17 06:15:03;;;;;;;7.45;4.05;;;;;;;13.82;67.23;97910.03;262186;1101;114577;-68
2021/05/17 06:26:14;;;;;;;7.13;4.13;;;;;;;14.00;67.47;97885.25;262031;1094;102953;-67
2021/05/17 06:31:36;;;;;;;9.60;4.78;;;;;;;14.16;67.55;97874.75;261629;1100;116625;-66
2021/05/17 06:40:37;;;;;;;10.95;4.25;;;;;;;14.29;67.50;97872.59;262630;1100;102468;-64
2021/05/17 06:46:25;;;;;;;8.73;4.00;;;;;;;14.37;66.82;97875.39;262237;1099;115381;-67
2021/05/17 07:15:06;;;;;;;7.48;4.28;;;;;;;14.94;66.02;97844.92;261893;1100;114620;-67
2021/05/17 08:02:59;;;;;;;6.75;2.53;;;;;;;15.96;64.88;97788.09;262270;1092;102958;-67
2021/05/17 08:08:42;;;;;;;3.83;2.65;;;;;;;16.08;64.69;97782.28;262271;1104;114622;-67
2021/05/17 08:51:06;;;;;;;11.58;3.15;;;;;;;17.16;61.87;97771.66;262158;1101;103084;-67
2021/05/17 08:56:35;;;;;;;6.38;2.25;;;;;;;17.21;62.04;97761.23;261628;1099;115034;-67
2021/05/17 09:06:22;;;;;;;3.45;1.90;;;;;;;17.21;60.97;97776.52;262252;1092;103129;-67
2021/05/17 09:11:58;;;;;;;8.83;2.55;;;;;;;17.16;60.84;97773.52;262032;1104;115706;-67
2021/05/17 09:26:10;;;;;;;8.50;2.60;;;;;;;17.10;60.96;97772.33;263028;1093;102908;-67
2021/05/17 09:32:39;;;;;;;7.80;2.95;;;;;;;17.07;60.99;97769.13;262120;1104;114533;-66
2021/05/17 10:03:01;;;;;;;6.45;2.00;;;;;;;16.90;60.48;97770.97;261999;1100;434563;-66
2021/05/17 10:08:17;;;;;;;7.03;2.58;;;;;;;16.87;60.36;97761.38;262020;1096;114154;-67
2021/05/17 10:13:23;;;;;;;7.37;3.17;;;;;;;16.85;60.39;97767.92;255966;1102;5421190;-67
2021/05/17 10:18:37;;;;;;;4.73;2.68;;;;;;;16.79;60.76;97764.07;261179;1102;114881;-67
2021/05/17 10:23:55;;;;;;;6.15;2.70;;;;;;;16.81;60.58;97755.83;261049;1102;113194;-67
2021/05/17 10:29:16;;;;;;;12.75;3.10;;;;;;;16.81;60.73;97747.77;261091;1105;114352;-67
2021/05/17 10:34:25;;;;;;;7.48;2.85;;;;;;;16.82;60.50;97746.78;261257;1106;113361;-67
2021/05/17 10:39:44;;;;;;;13.30;3.00;;;;;;;16.79;60.12;97740.73;260885;1100;352838;-66
2021/05/17 10:50:32;;;;;;;11.13;3.18;;;;;;;16.77;59.71;97739.20;260943;1102;114476;-67
2021/05/17 10:55:58;;;;;;;10.45;3.00;;;;;;;16.76;59.67;97735.68;261059;1103;115936;-67
2021/05/17 11:01:26;;;;;;;11.67;3.30;;;;;;;16.73;59.47;97727.92;261177;1103;114627;-67
2021/05/17 11:06:39;;;;;;;6.60;3.30;;;;;;;16.72;59.98;97734.30;261780;1105;114954;-67
2021/05/17 11:11:45;;;;;;;5.57;3.10;;;;;;;16.73;59.88;97725.23;262160;1101;114203;-67
2021/05/17 11:16:58;;;;;;;9.40;3.20;;;;;;;16.78;60.04;97722.09;262153;1105;115156;-67
2021/05/17 11:22:03;;;;;;;7.25;2.80;;;;;;;16.84;59.69;97723.25;262171;1101;114425;-67
2021/05/17 11:27:07;;;;;;;7.83;2.78;;;;;;;16.87;59.88;97720.23;262200;1105;114361;-66
2021/05/17 11:32:13;;;;;;;5.20;2.48;;;;;;;16.91;59.74;97718.89;262172;1101;114865;-67
2021/05/17 11:37:16;;;;;;;5.30;2.93;;;;;;;16.94;59.63;97723.94;262223;1104;114808;-67
2021/05/17 11:42:21;;;;;;;12.83;3.05;;;;;;;16.94;59.44;97726.63;262137;1102;114361;-67
2021/05/17 11:47:30;;;;;;;6.00;3.58;;;;;;;16.92;59.88;97721.43;262207;1106;114515;-67
2021/05/17 11:52:34;;;;;;;7.45;3.30;;;;;;;16.92;60.10;97731.34;262224;1102;114660;-67
2021/05/17 11:57:40;;;;;;;6.70;3.10;;;;;;;16.90;59.86;97727.97;262292;1104;114896;-67
2021/05/17 12:02:52;;;;;;;5.87;3.13;;;;;;;16.90;60.48;97731.49;262223;1102;114476;-68
2021/05/17 12:07:57;;;;;;;9.45;3.40;;;;;;;16.91;60.74;97735.85;262232;1106;114455;-66
2021/05/17 12:13:16;;;;;;;10.10;3.30;;;;;;;16.87;60.97;97726.45;262231;1101;114486;-67
2021/05/17 12:18:19;;;;;;;12.95;3.58;;;;;;;16.78;61.08;97717.56;262237;1105;114803;-67
2021/05/17 12:23:23;;;;;;;7.20;3.58;;;;;;;16.76;61.51;97713.35;262207;1103;114917;-67
2021/05/17 12:28:27;;;;;;;9.03;3.90;;;;;;;16.73;61.78;97719.86;262255;1106;114683;-67
2021/05/17 12:33:31;;;;;;;6.43;3.90;;;;;;;16.67;61.97;97720.52;262198;1102;114312;-67
2021/05/17 12:38:35;;;;;;;7.30;4.13;;;;;;;16.62;62.11;97722.05;262236;1105;114794;-68
2021/05/17 12:43:39;;;;;;;7.63;4.50;;;;;;;16.59;62.44;97725.89;262199;1102;114401;-67
2021/05/17 12:48:49;;;;;;;7.73;4.80;;;;;;;16.60;62.73;97711.45;262221;1106;114657;-67
2021/05/17 12:54:08;;;;;;;9.80;5.15;;;;;;;16.59;63.01;97707.09;262210;1101;114359;-67
2021/05/17 12:59:18;;;;;;;9.90;4.88;;;;;;;16.60;63.17;97713.30;262157;1106;114461;-67
2021/05/17 13:04:27;;;;;;;11.07;4.27;;;;;;;16.59;63.26;97711.63;262211;1101;115236;-67
2021/05/17 13:09:33;;;;;;;8.70;4.15;;;;;;;16.55;63.16;97709.27;262175;1105;114927;-67
2021/05/17 13:14:41;;;;;;;7.90;3.85;;;;;;;16.53;63.36;97708.58;262238;1102;114812;-66
2021/05/17 13:19:51;;;;;;;8.68;3.98;;;;;;;16.49;63.50;97715.30;262249;1104;114241;-67
2021/05/17 13:35:14;;;;;;;8.05;3.53;;;;;;;16.39;63.37;97717.29;262269;1101;115159;-67
2021/05/17 13:40:19;;;;;;;9.90;3.63;;;;;;;16.35;63.60;97723.16;262252;1105;114253;-67
2021/05/17 13:45:22;;;;;;;7.73;3.03;;;;;;;16.28;63.67;97712.23;262260;1102;115938;-67
2021/05/17 13:50:26;;;;;;;8.10;3.23;;;;;;;16.18;63.63;97720.42;262206;1106;114951;-68
2021/05/17 13:55:30;;;;;;;12.68;3.08;;;;;;;16.16;63.87;97722.42;262249;1101;114731;-68
2021/05/17 14:00:34;;;;;;;11.35;3.53;;;;;;;16.20;64.36;97721.11;262240;1106;114049;-68
2021/05/17 14:05:38;;;;;;;5.73;3.35;;;;;;;16.28;64.39;97717.60;262226;1103;114944;-68
2021/05/17 14:10:42;;;;;;;9.05;3.45;;;;;;;16.25;64.28;97712.56;262249;1106;115063;-67
2021/05/17 14:15:47;;;;;;;10.53;5.15;;;;;;;16.23;64.20;97710.02;262179;1102;114400;-67
2021/05/17 14:20:51;;;;;;;7.10;3.10;;;;;;;16.19;64.11;97715.89;262268;1103;115093;-67
2021/05/17 14:25:54;;;;;;;6.43;2.05;;;;;;;16.17;64.16;97718.75;262228;1101;114494;-67
2021/05/17 14:30:58;;;;;;;3.90;2.20;;;;;;;16.24;63.97;97714.41;262287;1104;114385;-67
2021/05/17 14:36:02;;;;;;;4.33;2.00;;;;;;;16.23;63.58;97712.70;262256;1101;114068;-67
2021/05/17 14:41:06;;;;;;;3.48;1.98;;;;;;;16.22;63.64;97721.77;262271;1106;114312;-68
2021/05/17 14:46:10;;;;;;;4.90;2.03;;;;;;;16.19;63.50;97719.41;262236;1102;113938;-68
2021/05/17 14:51:14;;;;;;;5.57;2.30;;;;;;;16.07;63.51;97713.52;262228;1106;114474;-68
2021/05/17 14:56:19;;;;;;;;;;;;;;;16.02;63.40;97723.05;262254;1102;114749;-68
2021/05/17 15:01:24;;;;;;;5.88;2.98;;;;;;;15.93;63.44;97718.64;261701;1105;102778;-68
2021/05/17 15:06:30;;;;;;;7.28;4.00;;;;;;;15.88;63.77;97721.81;262179;1102;113987;-68
2021/05/17 15:11:35;;;;;;;7.98;2.98;;;;;;;15.83;63.90;97724.99;262151;1105;114513;-68
2021/05/17 15:16:39;;;;;;;5.48;3.40;;;;;;;15.85;63.93;97716.77;262211;1102;114646;-69
2021/05/17 15:21:43;;;;;;;7.48;3.53;;;;;;;15.91;64.16;97717.98;262174;1106;114433;-68
2021/05/17 15:26:47;;;;;;;5.27;3.40;;;;;;;15.93;64.17;97722.19;262181;1101;114169;-67
2021/05/17 15:31:50;;;;;;;6.58;3.15;;;;;;;15.88;64.04;97719.13;262163;1106;114397;-67
2021/05/17 15:36:54;;;;;;;3.98;2.78;;;;;;;15.78;64.03;97727.30;262186;1102;114761;-68
2021/05/17 15:41:58;;;;;;;3.70;2.60;;;;;;;15.67;63.83;97719.55;262190;1104;114583;-67
2021/05/17 15:47:03;;;;;;;3.48;2.55;;;;;;;15.55;63.94;97716.25;262217;1102;114889;-67
2021/05/17 15:52:07;;;;;;;3.45;2.28;;;;;;;15.50;64.22;97723.94;262168;1106;114753;-68
2021/05/17 15:57:11;;;;;;;4.13;2.90;;;;;;;15.42;64.33;97717.67;262164;1103;114477;-68
2021/05/17 16:02:15;;;;;;;6.55;3.38;;;;;;;15.34;64.60;97732.71;262199;1106;114979;-68
2021/05/17 16:07:19;;;;;;;9.73;6.73;;;;;;;15.25;64.52;97728.31;262157;1101;114607;-69
2021/05/17 16:12:28;;;;;;;5.35;3.30;;;;;;;15.17;64.50;97727.40;262111;1105;115376;-67
2021/05/17 16:22:44;;;;;;;4.33;3.30;;;;;;;14.99;64.99;97724.76;262164;1106;116057;-68
2021/05/17 16:27:48;;;;;;;7.70;3.90;;;;;;;14.93;65.05;97725.38;262227;1101;114459;-68
2021/05/17 16:32:52;;;;;;;6.45;4.80;;;;;;;14.93;65.60;97715.50;262296;1106;114776;-68
2021/05/17 16:37:56;;;;;;;6.87;5.17;;;;;;;14.94;65.49;97732.41;262224;1101;115282;-68
2021/05/17 17:45:32;;;;;;;8.88;5.60;;;;;;;13.73;68.43;97769.20;263390;1091;102912;-67
2021/05/17 17:50:40;;;;;;;13.05;7.55;;;;;;;13.75;68.53;97772.55;263174;1101;114360;-68
2021/05/17 17:55:44;;;;;;;9.40;6.68;;;;;;;13.85;69.19;97778.70;262885;1098;115758;-68
2021/05/17 18:00:47;;;;;;;11.43;6.53;;;;;;;13.98;69.27;97756.14;263140;1103;114542;-67
2021/05/17 18:05:54;;;;;;;11.70;5.70;;;;;;;14.09;68.83;97751.42;263131;1098;114532;-68
2021/05/17 18:10:58;;;;;;;9.18;5.48;;;;;;;14.14;68.38;97746.48;262964;1103;114675;-68
2021/05/17 18:16:02;;;;;;;7.95;5.30;;;;;;;14.17;68.31;97745.35;263026;1098;114553;-67
2021/05/17 18:21:09;;;;;;;6.63;4.73;;;;;;;14.20;68.89;97745.89;263167;1101;114729;-68
2021/05/17 18:26:14;;;;;;;7.48;4.93;;;;;;;14.25;68.40;97740.08;263138;1099;114908;-68
2021/05/17 18:36:51;;;;;;;7.98;4.60;;;;;;;14.34;68.49;97736.52;262708;1103;114142;-67
2021/05/17 18:41:55;;;;;;;8.00;4.78;;;;;;;14.38;68.66;97742.41;263089;1101;115072;-67
2021/05/17 18:47:07;;;;;;;7.03;4.43;;;;;;;14.37;68.22;97751.44;263129;1099;114572;-67
2021/05/17 18:52:12;;;;;;;7.48;4.88;;;;;;;14.34;68.38;97743.70;263139;1101;114137;-68
2021/05/17 18:57:22;;;;;;;6.35;4.50;;;;;;;14.34;68.50;97757.92;263055;1099;114552;-68
2021/05/17 19:02:26;;;;;;;8.20;5.33;;;;;;;14.31;67.80;97768.09;261679;1104;114995;-67
2021/05/17 19:07:34;;;;;;;7.10;4.80;;;;;;;14.26;68.13;97768.52;263037;1099;114541;-69
2021/05/17 19:12:38;;;;;;;8.13;4.78;;;;;;;14.22;68.13;97775.16;262950;1101;114258;-68
2021/05/17 19:17:44;;;;;;;6.13;4.25;;;;;;;14.19;68.00;97770.11;263121;1099;114352;-68
2021/05/17 19:22:48;;;;;;;6.50;3.85;;;;;;;14.18;68.43;97763.08;263047;1101;114531;-68
2021/05/17 19:27:52;;;;;;;6.45;4.33;;;;;;;14.22;68.14;97760.95;263136;1098;114443;-68
2021/05/17 19:32:56;;;;;;;6.80;3.90;;;;;;;14.19;68.31;97768.27;263134;1104;114684;-68
2021/05/17 19:38:00;;;;;;;7.77;3.90;;;;;;;14.21;68.64;97768.14;262383;1099;114631;-66
2021/05/17 19:43:05;;;;;;;7.47;4.33;;;;;;;14.14;68.17;97767.05;263107;1102;114951;-66
2021/05/17 19:48:10;;;;;;;6.53;4.17;;;;;;;14.05;68.18;97762.59;262542;1099;114646;-68
2021/05/17 19:53:14;;;;;;;7.50;4.20;;;;;;;13.97;68.38;97774.03;262628;1102;114116;-69
2021/05/17 19:58:18;;;;;;;8.03;4.55;;;;;;;13.95;68.47;97768.81;262849;1098;115059;-69
2021/05/17 20:03:22;;;;;;;6.88;4.50;;;;;;;14.03;68.37;97767.23;263125;1103;114904;-65
2021/05/17 20:08:29;;;;;;;14.60;5.13;;;;;;;14.07;68.71;97765.97;263143;1100;114501;-66
2021/05/17 20:13:32;;;;;;;8.38;4.88;;;;;;;14.06;68.47;97758.91;263045;1103;114854;-65
2021/05/17 20:18:37;;;;;;;8.33;5.00;;;;;;;14.04;68.68;97766.26;263140;1099;114454;-70
2021/05/17 20:23:41;;;;;;;7.73;5.03;;;;;;;14.01;69.04;97755.85;263152;1102;114983;-68
2021/05/17 20:28:45;;;;;;;8.23;5.45;;;;;;;14.01;69.28;97766.55;262988;1100;114646;-69
2021/05/17 20:34:04;;;;;;;8.97;6.70;;;;;;;14.01;68.87;97755.85;263153;1103;115611;-70
2021/05/17 20:39:13;;;;;;;10.00;7.38;;;;;;;14.05;68.87;97752.72;263138;1099;114310;-68
2021/05/17 20:44:17;;;;;;;10.80;8.10;;;;;;;14.07;69.18;97748.08;263162;1102;115940;-70
2021/05/17 20:49:24;;;;;;;13.30;10.25;;;;;;;14.00;69.34;97744.31;263148;1098;115158;-68
2021/05/17 20:54:29;;;;;;;;;;;;;;;14.00;69.22;97743.48;263156;1104;114895;-63
2021/05/17 20:59:33;;;;;;;11.35;7.98;;;;;;;13.98;69.19;97742.77;262841;1100;101868;-63
2021/05/17 21:04:41;;;;;;;10.43;8.25;;;;;;;13.99;69.34;97747.13;263091;1104;114906;-63
2021/05/17 21:09:45;;;;;;;11.98;8.75;;;;;;;14.00;69.09;97748.83;263076;1098;115330;-65
2021/05/17 21:14:50;;;;;;;10.28;7.58;;;;;;;13.99;69.50;97745.28;263116;1102;114576;-67
2021/05/17 21:19:53;;;;;;;11.25;8.08;;;;;;;13.94;69.56;97737.72;263090;1099;115163;-65
2021/05/17 21:24:59;;;;;;;13.63;8.35;;;;;;;13.90;69.40;97736.34;263146;1103;114661;-66
2021/05/17 21:30:05;;;;;;;8.37;6.50;;;;;;;13.88;69.44;97740.98;263103;1098;114744;-65
2021/05/17 21:35:10;;;;;;;8.10;5.60;;;;;;;13.87;69.71;97738.47;263107;1103;114279;-64
2021/05/17 21:40:16;;;;;;;;;;;;;;;13.90;69.81;97740.84;263133;1100;114332;-67
2021/05/17 21:45:19;;;;;;;5.75;4.28;;;;;;;13.83;69.55;97747.78;263220;1102;101696;-67
2021/05/17 21:50:23;;;;;;;6.73;2.90;;;;;;;13.77;69.45;97743.02;263057;1099;114476;-65
2021/05/17 21:55:27;;;;;;;3.27;1.40;;;;;;;13.72;69.36;97740.76;263129;1104;114422;-67
2021/05/17 22:00:35;;;;;;;1.90;1.03;;;;;;;13.72;69.65;97741.63;263106;1099;114553;-64
2021/05/17 22:05:51;;;;;;;1.37;1.10;;;;;;;13.73;69.25;97737.12;261138;1104;114230;-66
2021/05/17 22:11:04;;;;;;;1.77;1.30;;;;;;;13.70;69.41;97729.39;261382;1099;115332;-67
2021/05/17 22:16:13;;;;;;;2.13;1.47;;;;;;;13.65;69.50;97734.32;261124;1103;114262;-64
2021/05/17 22:21:29;;;;;;;3.90;2.53;;;;;;;13.57;69.57;97721.69;260848;1103;115763;-67
2021/05/17 22:26:46;;;;;;;4.25;1.50;;;;;;;13.44;69.52;97737.20;260906;1101;114388;-66
2021/05/17 22:31:54;;;;;;;1.37;1.23;;;;;;;13.40;69.29;97752.69;261091;1102;115752;-64
2021/05/17 22:37:04;;;;;;;2.67;1.63;;;;;;;13.33;69.05;97770.29;260878;1103;114463;-67
2021/05/17 22:42:16;;;;;;;2.70;1.67;;;;;;;13.28;69.43;97780.58;261164;1099;117379;-64
2021/05/17 22:47:24;;;;;;;2.07;1.60;;;;;;;13.23;69.82;97788.97;261022;1103;113940;-64
2021/05/17 22:52:40;;;;;;;5.20;2.30;;;;;;;13.19;69.88;97790.25;261071;1102;114736;-65
2021/05/17 22:57:48;;;;;;;3.53;1.97;;;;;;;13.16;70.08;97792.36;261229;1099;115407;-66
2021/05/17 23:02:55;;;;;;;4.83;2.37;;;;;;;13.13;69.77;97780.13;261212;1100;114831;-67
2021/05/17 23:08:11;;;;;;;6.23;3.20;;;;;;;13.17;70.06;97776.18;263134;1099;115287;-65
2021/05/17 23:13:18;;;;;;;5.90;3.58;;;;;;;13.16;69.80;97774.50;263044;1103;114600;-66
2021/05/17 23:18:22;;;;;;;4.83;3.20;;;;;;;13.15;70.04;97774.66;263138;1099;114890;-66
2021/05/17 23:23:31;;;;;;;5.18;3.65;;;;;;;13.11;70.25;97776.77;263123;1104;114779;-66
2021/05/17 23:28:35;;;;;;;4.08;3.05;;;;;;;13.03;69.61;97785.47;263163;1098;114253;-66
2021/05/17 23:33:40;;;;;;;4.43;3.20;;;;;;;13.02;70.24;97775.78;263222;1103;114580;-65
2021/05/17 23:38:44;;;;;;;4.70;3.30;;;;;;;13.05;70.79;97777.34;263129;1099;114917;-67
2021/05/17 23:43:51;;;;;;;5.70;3.23;;;;;;;13.01;70.03;97773.27;263189;1102;114750;-67
2021/05/17 23:48:55;;;;;;;5.05;3.10;;;;;;;12.95;70.22;97768.48;263132;1100;114703;-68
2021/05/17 23:53:58;;;;;;;5.48;2.95;;;;;;;12.87;69.72;97768.33;263170;1103;114693;-67
2021/05/17 23:59:03;;;;;;;6.58;2.48;;;;;;;12.81;70.21;97766.25;263231;1099;114732;-66
